createdAt,value
2022-10-18T00:03:19.893Z,3.55
2022-10-18T00:08:25.561Z,3.58
2022-10-18T00:13:29.260Z,3.55
2022-10-18T00:18:33.086Z,4.00
2022-10-18T00:23:38.644Z,3.72
2022-10-18T00:28:43.127Z,3.35
2022-10-18T00:33:51.423Z,3.25
2022-10-18T00:38:56.439Z,3.50
2022-10-18T00:44:03.336Z,3.45
2022-10-18T00:49:17.103Z,3.20
2022-10-18T00:54:23.174Z,3.17
2022-10-18T00:59:27.804Z,3.22
2022-10-18T01:04:31.521Z,3.00
2022-10-18T01:09:47.129Z,3.33
2022-10-18T01:15:03.885Z,3.20
2022-10-18T01:20:50.304Z,2.87
2022-10-18T01:26:08.604Z,2.87
2022-10-18T01:31:16.961Z,3.00
2022-10-18T01:36:27.360Z,2.60
2022-10-18T01:41:31.514Z,2.70
2022-10-18T01:46:38.030Z,2.92
2022-10-18T01:51:41.487Z,2.40
2022-10-18T01:56:53.631Z,2.60
2022-10-18T02:02:11.093Z,2.42
2022-10-18T02:07:33.423Z,2.58
2022-10-18T02:12:43.094Z,2.47
2022-10-18T02:17:48.120Z,2.50
2022-10-18T02:22:55.399Z,2.40
2022-10-18T02:27:59.666Z,2.30
2022-10-18T02:33:14.355Z,2.63
2022-10-18T02:38:20.899Z,2.17
2022-10-18T02:43:25.975Z,2.25
2022-10-18T02:48:31.232Z,2.13
2022-10-18T02:53:34.741Z,2.30
2022-10-18T02:58:38.238Z,2.47
2022-10-18T03:03:43.123Z,2.20
2022-10-18T03:08:46.831Z,2.42
2022-10-18T03:13:51.134Z,2.10
2022-10-18T03:18:55.977Z,1.85
2022-10-18T03:23:59.789Z,2.00
2022-10-18T03:29:03.423Z,2.05
2022-10-18T03:34:08.344Z,2.08
2022-10-18T03:39:13.724Z,2.05
2022-10-18T03:44:17.177Z,1.73
2022-10-18T03:49:22.191Z,2.05
2022-10-18T03:54:25.733Z,1.90
2022-10-18T03:59:29.251Z,1.92
2022-10-18T04:04:34.102Z,2.00
2022-10-18T04:09:37.609Z,1.73
2022-10-18T04:14:41.105Z,1.65
2022-10-18T04:19:46.430Z,1.70
2022-10-18T04:24:50.146Z,1.75
2022-10-18T04:29:53.692Z,1.55
2022-10-18T04:34:58.545Z,1.90
2022-10-18T04:40:02.029Z,1.55
2022-10-18T04:45:06.811Z,1.65
2022-10-18T04:50:11.999Z,1.52
2022-10-18T04:55:15.458Z,1.40
2022-10-18T05:00:19.259Z,1.60
2022-10-18T05:05:27.052Z,1.70
2022-10-18T05:10:36.708Z,1.63
2022-10-18T05:15:40.201Z,1.73
2022-10-18T05:20:45.102Z,1.70
2022-10-18T05:25:48.716Z,1.60
2022-10-18T05:30:52.231Z,1.60
2022-10-18T05:35:57.542Z,1.30
2022-10-18T05:41:05.393Z,1.40
2022-10-18T05:46:14.571Z,1.63
2022-10-18T05:51:20.217Z,1.30
2022-10-18T05:56:23.749Z,1.38
2022-10-18T06:01:27.343Z,1.20
2022-10-18T06:06:33.522Z,1.58
2022-10-18T06:11:38.508Z,1.40
2022-10-18T06:16:41.931Z,1.20
2022-10-18T06:21:46.855Z,1.27
2022-10-18T06:26:50.527Z,1.40
2022-10-18T06:31:53.970Z,1.40
2022-10-18T06:36:58.971Z,1.15
2022-10-18T06:42:02.413Z,1.40
2022-10-18T06:47:11.303Z,1.20
2022-10-18T06:52:18.718Z,1.38
2022-10-18T06:57:22.622Z,1.10
2022-10-18T07:02:26.032Z,1.17
2022-10-18T07:07:32.606Z,1.15
2022-10-18T07:12:36.504Z,1.40
2022-10-18T07:17:39.993Z,1.23
2022-10-18T07:22:44.809Z,1.20
2022-10-18T07:27:48.305Z,1.20
2022-10-18T07:32:52.938Z,1.35
2022-10-18T07:37:57.806Z,1.30
2022-10-18T07:43:04.530Z,1.13
2022-10-18T07:48:08.669Z,1.10
2022-10-18T07:53:13.491Z,1.17
2022-10-18T07:58:16.905Z,1.20
2022-10-18T08:03:20.832Z,2.67
2022-10-18T08:08:27.057Z,2.50
2022-10-18T08:13:31.154Z,2.90
2022-10-18T08:18:35.614Z,3.72
2022-10-18T08:23:41.717Z,3.92
2022-10-18T08:28:53.714Z,4.63
2022-10-18T08:34:02.062Z,5.33
2022-10-18T08:39:06.892Z,5.13
2022-10-18T08:44:19.301Z,12.05
2022-10-18T08:49:29.560Z,7.90
2022-10-18T08:54:49.760Z,9.05
2022-10-18T08:59:53.730Z,9.57
2022-10-18T09:05:09.698Z,10.10
2022-10-18T09:10:30.765Z,9.98
2022-10-18T09:15:48.673Z,11.40
2022-10-18T09:20:59.367Z,11.75
2022-10-18T09:26:15.054Z,12.20
2022-10-18T09:31:25.793Z,11.85
2022-10-18T09:36:35.715Z,11.95
2022-10-18T09:41:48.993Z,12.45
2022-10-18T09:47:01.360Z,13.13
2022-10-18T09:52:16.755Z,12.32
2022-10-18T09:57:29.416Z,13.45
2022-10-18T10:02:33.588Z,20.23
2022-10-18T10:07:47.390Z,19.38
2022-10-18T10:13:07.968Z,19.67
2022-10-18T10:18:22.362Z,19.40
2022-10-18T10:23:30.779Z,19.80
2022-10-18T10:28:46.425Z,17.90
2022-10-18T10:34:00.867Z,17.92
2022-10-18T10:39:08.440Z,16.85
2022-10-18T10:49:39.809Z,16.95
2022-10-18T10:54:51.347Z,16.17
2022-10-18T11:00:00.733Z,15.88
2022-10-18T11:05:25.475Z,14.90
2022-10-18T11:10:33.145Z,14.35
2022-10-18T11:15:47.598Z,13.23
2022-10-18T11:20:59.715Z,12.82
2022-10-18T11:26:45.532Z,12.02
2022-10-18T11:32:07.138Z,12.20
2022-10-18T11:37:33.415Z,10.88
2022-10-18T11:42:48.494Z,11.38
2022-10-18T11:48:04.034Z,11.38
2022-10-18T11:53:20.748Z,10.82
2022-10-18T11:58:52.480Z,10.77
2022-10-18T12:04:08.552Z,10.75
2022-10-18T12:09:25.044Z,10.65
2022-10-18T12:14:34.507Z,10.32
2022-10-18T12:19:39.975Z,10.13
2022-10-18T12:24:44.189Z,9.57
2022-10-18T12:29:57.671Z,9.45
2022-10-18T12:35:11.042Z,9.50
2022-10-18T12:40:21.731Z,9.75
2022-10-18T12:45:34.982Z,8.60
2022-10-18T12:50:43.464Z,9.15
2022-10-18T12:55:51.383Z,8.73
2022-10-18T13:01:08.306Z,8.93
2022-10-18T13:06:13.262Z,8.33
2022-10-18T13:11:36.353Z,8.63
2022-10-18T13:16:49.007Z,8.40
2022-10-18T13:22:20.924Z,8.70
2022-10-18T13:27:42.989Z,8.20
2022-10-18T13:32:58.084Z,7.97
2022-10-18T13:38:03.942Z,8.27
2022-10-18T13:44:24.532Z,7.72
2022-10-18T13:49:41.213Z,7.70
2022-10-18T13:55:07.536Z,7.67
2022-10-18T14:00:49.243Z,7.60
2022-10-18T14:05:55.351Z,7.55
2022-10-18T14:11:07.655Z,7.45
2022-10-18T14:16:31.777Z,7.25
2022-10-18T14:21:39.922Z,6.55
2022-10-18T14:26:45.133Z,6.50
2022-10-18T14:31:56.544Z,6.82
2022-10-18T14:37:00.290Z,7.20
2022-10-18T14:42:05.294Z,6.90
2022-10-18T14:47:18.300Z,6.75
2022-10-18T14:52:29.525Z,6.80
2022-10-18T14:57:39.300Z,6.43
2022-10-18T15:02:43.083Z,6.50
2022-10-18T15:07:46.949Z,6.05
2022-10-18T15:13:08.613Z,6.53
2022-10-18T15:18:25.184Z,6.60
2022-10-18T15:23:31.359Z,6.10
2022-10-18T15:28:49.520Z,5.97
2022-10-18T15:35:13.612Z,6.22
2022-10-18T15:40:35.475Z,5.97
2022-10-18T15:51:01.985Z,5.32
2022-10-18T15:56:09.337Z,5.90
2022-10-18T16:01:19.993Z,5.88
2022-10-18T16:06:23.708Z,5.80
2022-10-18T16:11:28.326Z,5.18
2022-10-18T16:16:33.436Z,5.13
2022-10-18T16:21:40.238Z,4.95
2022-10-18T16:26:43.892Z,5.00
2022-10-18T16:31:50.913Z,5.03
2022-10-18T16:36:55.547Z,5.13
2022-10-18T16:41:59.367Z,5.18
2022-10-18T16:47:05.016Z,4.82
2022-10-18T16:52:08.755Z,4.72
2022-10-18T16:57:13.566Z,5.38
2022-10-18T17:02:19.067Z,4.00
2022-10-18T17:07:26.527Z,4.43
2022-10-18T17:12:30.578Z,4.78
2022-10-18T17:17:36.359Z,4.55
2022-10-18T17:22:39.928Z,4.82
2022-10-18T17:27:43.804Z,4.50
2022-10-18T17:32:48.777Z,4.15
2022-10-18T17:37:53.483Z,3.92
2022-10-18T17:42:57.073Z,4.28
2022-10-18T17:48:02.594Z,4.38
2022-10-18T17:53:06.190Z,4.45
2022-10-18T17:58:10.151Z,3.97
2022-10-18T18:03:15.001Z,3.90
2022-10-18T18:08:18.642Z,3.85
2022-10-18T18:13:22.182Z,4.00
2022-10-18T18:18:27.594Z,4.10
2022-10-18T18:23:31.228Z,3.53
2022-10-18T18:28:36.816Z,4.00
2022-10-18T18:33:42.243Z,3.63
2022-10-18T18:38:46.395Z,3.25
2022-10-18T18:43:55.883Z,3.60
2022-10-18T18:49:02.189Z,3.55
2022-10-18T18:54:08.248Z,3.25
2022-10-18T18:59:15.149Z,3.60
2022-10-18T19:04:20.051Z,3.40
2022-10-18T19:09:23.999Z,3.40
2022-10-18T19:14:29.065Z,3.30
2022-10-18T19:19:34.199Z,3.30
2022-10-18T19:24:38.098Z,3.10
2022-10-18T19:29:44.035Z,3.55
2022-10-18T19:34:49.094Z,3.03
2022-10-18T19:39:52.534Z,3.10
2022-10-18T19:44:56.266Z,3.20
2022-10-18T19:50:01.169Z,3.03
2022-10-18T19:55:05.981Z,3.20
2022-10-18T20:00:19.641Z,3.13
2022-10-18T20:05:25.320Z,3.15
2022-10-18T20:10:28.941Z,2.78
2022-10-18T20:15:33.270Z,2.95
2022-10-18T20:20:38.332Z,2.90
2022-10-18T20:25:42.056Z,2.90
2022-10-18T20:30:45.534Z,2.58
2022-10-18T20:35:52.303Z,2.80
2022-10-18T20:40:55.982Z,2.83
2022-10-18T20:46:00.860Z,2.90
2022-10-18T20:51:08.501Z,2.70
2022-10-18T21:01:20.878Z,2.65
2022-10-18T21:06:29.837Z,2.70
2022-10-18T21:11:38.473Z,2.40
2022-10-18T21:16:44.004Z,2.28
2022-10-18T21:21:53.790Z,2.08
2022-10-18T21:26:58.170Z,2.30
2022-10-18T21:32:02.747Z,2.10
2022-10-18T21:37:07.784Z,2.10
2022-10-18T21:42:12.340Z,2.20
2022-10-18T21:47:16.104Z,2.22
2022-10-18T21:52:21.066Z,2.00
2022-10-18T21:57:24.816Z,2.20
2022-10-18T22:02:28.771Z,2.17
2022-10-18T22:07:34.001Z,2.00
2022-10-18T22:12:37.897Z,2.10
2022-10-18T22:17:41.679Z,2.05
2022-10-18T22:22:46.722Z,2.00
2022-10-18T22:27:50.310Z,2.53
2022-10-18T22:32:53.915Z,2.40
2022-10-18T22:37:58.868Z,2.80
2022-10-18T22:43:02.458Z,3.00
2022-10-18T22:48:07.129Z,2.97
2022-10-18T22:53:12.115Z,2.80
2022-10-18T22:58:15.901Z,2.83
2022-10-18T23:03:20.711Z,2.70
2022-10-18T23:08:26.157Z,2.90
2022-10-18T23:13:29.901Z,2.88
2022-10-18T23:18:34.402Z,3.00
2022-10-18T23:23:44.509Z,3.10
2022-10-18T23:28:50.724Z,3.10
2022-10-18T23:33:57.754Z,3.10
2022-10-18T23:39:03.460Z,3.07
2022-10-18T23:44:09.059Z,2.97
2022-10-18T23:49:12.761Z,3.00
2022-10-18T23:54:17.871Z,3.08
2022-10-18T23:59:21.713Z,2.95
